createdAt,value
2023-03-26T00:00:05.342Z,999.93
2023-03-26T00:00:33.971Z,999.93
2023-03-26T00:00:51.388Z,999.93
2023-03-26T00:01:23.309Z,999.93
2023-03-26T00:01:40.381Z,1000.13
2023-03-26T00:02:11.965Z,1000.13
2023-03-26T00:02:34.264Z,999.73
2023-03-26T00:02:59.164Z,999.73
2023-03-26T00:03:31.122Z,999.73
2023-03-26T00:04:03.067Z,999.83
2023-03-26T00:04:34.432Z,999.73
2023-03-26T00:04:51.255Z,999.73
2023-03-26T00:05:24.848Z,999.73
2023-03-26T00:05:41.028Z,999.83
2023-03-26T00:06:11.062Z,999.83
2023-03-26T00:06:33.901Z,1000.13
2023-03-26T00:06:59.169Z,1000.13
2023-03-26T00:07:32.063Z,1000.13
2023-03-26T00:08:03.102Z,999.93
2023-03-26T00:08:35.626Z,1000.03
2023-03-26T00:09:07.360Z,1000.03
2023-03-26T00:09:34.984Z,1000.13
2023-03-26T00:09:55.274Z,1000.13
2023-03-26T00:10:27.697Z,1000.13
2023-03-26T00:11:01.227Z,999.83
2023-03-26T00:11:31.143Z,999.83
2023-03-26T00:12:03.809Z,1000.24
2023-03-26T00:12:35.036Z,999.93
2023-03-26T00:13:07.804Z,999.93
2023-03-26T00:13:34.973Z,999.83
2023-03-26T00:13:55.408Z,999.83
2023-03-26T00:14:27.152Z,999.83
2023-03-26T00:14:59.270Z,1000.03
2023-03-26T00:15:31.460Z,1000.03
2023-03-26T00:16:03.151Z,999.83
2023-03-26T00:16:34.961Z,999.93
2023-03-26T00:17:07.290Z,999.93
2023-03-26T00:17:34.917Z,1000.03
2023-03-26T00:17:55.400Z,1000.03
2023-03-26T00:18:27.841Z,1000.03
2023-03-26T00:18:59.120Z,1000.03
2023-03-26T00:19:31.986Z,1000.03
2023-03-26T00:20:03.283Z,999.83
2023-03-26T00:20:35.695Z,999.73
2023-03-26T00:21:07.169Z,999.73
2023-03-26T00:21:35.404Z,999.83
2023-03-26T00:21:55.292Z,999.83
2023-03-26T00:22:27.270Z,999.83
2023-03-26T00:22:59.897Z,999.73
2023-03-26T00:23:31.206Z,999.73
2023-03-26T00:24:03.954Z,999.63
2023-03-26T00:24:34.971Z,999.73
2023-03-26T00:25:08.466Z,999.73
2023-03-26T00:25:34.961Z,999.83
2023-03-26T00:25:55.608Z,999.83
2023-03-26T00:26:27.279Z,999.83
2023-03-26T00:26:59.295Z,999.93
2023-03-26T00:27:31.187Z,999.93
2023-03-26T00:28:03.213Z,999.93
2023-03-26T00:28:34.979Z,999.93
2023-03-26T00:29:07.313Z,999.93
2023-03-26T00:29:34.905Z,999.73
2023-03-26T00:29:55.496Z,999.73
2023-03-26T00:30:28.244Z,999.73
2023-03-26T00:30:59.204Z,999.73
2023-03-26T00:31:32.152Z,999.73
2023-03-26T00:32:03.150Z,999.83
2023-03-26T00:32:35.629Z,999.83
2023-03-26T00:33:07.321Z,999.83
2023-03-26T00:33:34.879Z,999.73
2023-03-26T00:33:55.170Z,999.73
2023-03-26T00:34:27.311Z,999.73
2023-03-26T00:34:59.754Z,1000.03
2023-03-26T00:35:31.317Z,1000.03
2023-03-26T00:36:04.538Z,999.83
2023-03-26T00:36:35.061Z,999.83
2023-03-26T00:37:08.045Z,999.83
2023-03-26T00:37:35.043Z,999.73
2023-03-26T00:37:55.469Z,999.73
2023-03-26T00:38:27.330Z,999.73
2023-03-26T00:38:59.147Z,999.73
2023-03-26T00:39:31.117Z,999.73
2023-03-26T00:40:03.361Z,999.73
2023-03-26T00:40:34.954Z,999.63
2023-03-26T00:41:07.459Z,999.63
2023-03-26T00:41:35.000Z,999.63
2023-03-26T00:41:55.463Z,999.63
2023-03-26T00:42:27.836Z,999.63
2023-03-26T00:42:59.159Z,1000.03
2023-03-26T00:43:31.939Z,1000.03
2023-03-26T00:44:03.331Z,999.63
2023-03-26T00:44:35.674Z,999.52
2023-03-26T00:45:07.645Z,999.52
2023-03-26T00:45:34.928Z,999.93
2023-03-26T00:45:55.643Z,999.93
2023-03-26T00:46:27.296Z,999.93
2023-03-26T00:46:59.786Z,999.83
2023-03-26T00:47:31.341Z,999.83
2023-03-26T00:48:03.820Z,999.52
2023-03-26T00:48:44.500Z,999.73
2023-03-26T00:49:07.809Z,999.73
2023-03-26T00:49:34.947Z,999.63
2023-03-26T00:49:55.489Z,999.63
2023-03-26T00:50:27.461Z,999.63
2023-03-26T00:50:59.134Z,999.73
2023-03-26T00:51:31.122Z,999.73
2023-03-26T00:52:03.069Z,999.63
2023-03-26T00:52:35.534Z,999.63
2023-03-26T00:53:07.238Z,999.63
2023-03-26T00:53:34.938Z,999.42
2023-03-26T00:53:55.554Z,999.42
2023-03-26T00:54:27.839Z,999.42
2023-03-26T00:54:59.282Z,999.73
2023-03-26T00:55:32.211Z,999.73
2023-03-26T00:56:03.112Z,999.63
2023-03-26T00:56:35.611Z,999.52
2023-03-26T00:57:07.275Z,999.52
2023-03-26T00:57:36.351Z,999.63
2023-03-26T00:57:55.159Z,999.63
2023-03-26T00:58:27.261Z,999.63
2023-03-26T00:58:59.710Z,999.52
2023-03-26T00:59:31.107Z,999.52
2023-03-26T01:00:04.327Z,999.52
2023-03-26T01:00:34.942Z,999.42
2023-03-26T01:01:07.238Z,999.42
2023-03-26T01:02:11.295Z,999.52
2023-03-26T01:02:38.165Z,999.52
2023-03-26T01:02:59.980Z,999.52
2023-03-26T01:03:31.508Z,999.52
2023-03-26T01:04:35.111Z,999.42
2023-03-26T01:05:07.480Z,999.42
2023-03-26T01:05:34.984Z,999.32
2023-03-26T01:05:56.234Z,999.32
2023-03-26T01:06:27.309Z,999.32
2023-03-26T01:06:59.099Z,999.32
2023-03-26T01:07:31.142Z,999.32
2023-03-26T01:08:03.083Z,999.42
2023-03-26T01:08:34.976Z,999.32
2023-03-26T01:09:07.472Z,999.32
2023-03-26T01:09:35.721Z,999.63
2023-03-26T01:09:55.438Z,999.63
2023-03-26T01:10:28.121Z,999.63
2023-03-26T01:10:59.209Z,999.22
2023-03-26T01:11:31.077Z,999.22
2023-03-26T01:12:03.172Z,999.22
2023-03-26T01:12:35.049Z,999.42
2023-03-26T01:13:07.359Z,999.42
2023-03-26T01:13:35.032Z,999.32
2023-03-26T01:13:55.921Z,999.32
2023-03-26T01:14:27.309Z,999.32
2023-03-26T01:14:59.756Z,999.32
2023-03-26T01:15:31.397Z,999.32
2023-03-26T01:16:03.108Z,999.22
2023-03-26T01:16:34.927Z,999.42
2023-03-26T01:17:07.314Z,999.42
2023-03-26T01:17:35.012Z,999.42
2023-03-26T01:17:55.673Z,999.42
2023-03-26T01:18:27.971Z,999.42
2023-03-26T01:18:59.176Z,999.12
2023-03-26T01:19:32.005Z,999.12
2023-03-26T01:20:03.236Z,999.22
2023-03-26T01:20:35.010Z,999.12
2023-03-26T01:21:07.898Z,999.12
2023-03-26T01:21:35.013Z,999.22
2023-03-26T01:21:56.184Z,999.22
2023-03-26T01:22:28.754Z,999.22
2023-03-26T01:22:59.200Z,999.32
2023-03-26T01:23:31.145Z,999.32
2023-03-26T01:24:03.890Z,999.12
2023-03-26T01:24:35.826Z,999.12
2023-03-26T01:25:07.484Z,999.12
2023-03-26T01:25:35.774Z,999.02
2023-03-26T01:25:55.884Z,999.02
2023-03-26T01:26:28.212Z,999.02
2023-03-26T01:26:59.338Z,999.32
2023-03-26T01:27:31.965Z,999.32
2023-03-26T01:28:03.151Z,998.92
2023-03-26T01:28:35.643Z,999.02
2023-03-26T01:29:07.299Z,999.02
2023-03-26T01:29:34.886Z,998.92
2023-03-26T01:29:56.927Z,998.92
2023-03-26T01:30:27.939Z,998.92
2023-03-26T01:30:59.119Z,999.02
2023-03-26T01:31:31.091Z,999.02
2023-03-26T01:32:03.100Z,999.02
2023-03-26T01:32:35.052Z,999.02
2023-03-26T01:33:07.434Z,999.02
2023-03-26T01:33:35.808Z,999.32
2023-03-26T01:33:55.377Z,999.32
2023-03-26T01:34:29.086Z,999.32
2023-03-26T01:34:59.255Z,999.12
2023-03-26T01:35:31.470Z,999.12
2023-03-26T01:36:03.153Z,999.22
2023-03-26T01:36:35.052Z,999.02
2023-03-26T01:37:07.122Z,999.02
2023-03-26T01:37:34.993Z,998.92
2023-03-26T01:37:55.806Z,998.92
2023-03-26T01:38:27.400Z,998.92
2023-03-26T01:38:59.403Z,998.92
2023-03-26T01:39:32.964Z,998.92
2023-03-26T01:40:03.419Z,999.12
2023-03-26T01:40:34.980Z,998.81
2023-03-26T01:41:07.132Z,998.81
2023-03-26T01:41:35.659Z,999.12
2023-03-26T01:41:56.098Z,999.12
2023-03-26T01:42:28.345Z,999.12
2023-03-26T01:42:59.279Z,998.92
2023-03-26T01:43:32.078Z,998.92
2023-03-26T01:44:03.459Z,999.02
2023-03-26T01:44:34.960Z,998.92
2023-03-26T01:45:08.436Z,998.92
2023-03-26T01:45:35.859Z,998.92
2023-03-26T01:45:56.437Z,998.92
2023-03-26T01:46:27.180Z,998.92
2023-03-26T01:47:00.006Z,998.92
2023-03-26T01:47:31.224Z,998.92
2023-03-26T01:48:03.247Z,998.92
2023-03-26T01:48:34.923Z,999.02
2023-03-26T01:49:07.226Z,999.02
2023-03-26T01:49:35.168Z,999.02
2023-03-26T01:49:56.184Z,999.02
2023-03-26T01:50:28.305Z,999.02
2023-03-26T01:50:59.326Z,998.81
2023-03-26T01:51:31.413Z,998.81
2023-03-26T01:52:03.085Z,999.02
2023-03-26T01:52:36.952Z,998.71
2023-03-26T01:53:07.188Z,998.71
2023-03-26T01:53:35.166Z,998.92
2023-03-26T01:53:55.853Z,998.92
2023-03-26T01:54:27.077Z,998.92
2023-03-26T01:54:59.389Z,998.92
2023-03-26T01:55:32.341Z,998.92
2023-03-26T01:56:03.123Z,998.81
2023-03-26T01:56:35.121Z,998.92
2023-03-26T01:57:07.169Z,998.92
2023-03-26T01:57:35.125Z,998.92
2023-03-26T01:57:55.251Z,998.92
2023-03-26T01:58:27.849Z,998.92
2023-03-26T01:58:59.377Z,998.81
2023-03-26T01:59:33.821Z,998.81
2023-03-26T02:00:03.826Z,999.02
2023-03-26T02:00:35.050Z,998.81
2023-03-26T02:01:07.213Z,998.81
2023-03-26T02:01:35.931Z,998.81
2023-03-26T02:01:56.750Z,998.81
2023-03-26T02:02:27.212Z,998.81
2023-03-26T02:02:59.550Z,998.71
2023-03-26T02:03:31.397Z,998.71
2023-03-26T02:04:03.112Z,998.71
2023-03-26T02:04:34.949Z,998.81
2023-03-26T02:05:07.339Z,998.81
2023-03-26T02:05:35.064Z,998.61
2023-03-26T02:05:56.285Z,998.61
2023-03-26T02:06:29.135Z,998.61
2023-03-26T02:06:59.418Z,998.71
2023-03-26T02:07:31.144Z,998.71
2023-03-26T02:08:03.083Z,998.81
2023-03-26T02:08:35.192Z,998.81
2023-03-26T02:09:07.119Z,998.81
2023-03-26T02:09:35.064Z,998.51
2023-03-26T02:09:55.862Z,998.51
2023-03-26T02:10:27.571Z,998.51
2023-03-26T02:10:59.328Z,998.71
2023-03-26T02:11:35.335Z,998.71
2023-03-26T02:12:03.183Z,998.61
2023-03-26T02:12:34.948Z,998.61
2023-03-26T02:13:07.144Z,998.61
2023-03-26T02:13:34.998Z,998.61
2023-03-26T02:13:55.447Z,998.61
2023-03-26T02:14:30.842Z,998.61
2023-03-26T02:14:59.328Z,998.51
2023-03-26T02:15:33.025Z,998.51
2023-03-26T02:16:03.117Z,998.51
2023-03-26T02:16:36.336Z,998.44
2023-03-26T02:17:07.196Z,998.44
2023-03-26T02:17:34.938Z,998.44
2023-03-26T02:17:55.890Z,998.44
2023-03-26T02:18:27.069Z,998.44
2023-03-26T02:18:59.870Z,998.34
2023-03-26T02:19:31.142Z,998.34
2023-03-26T02:20:05.065Z,998.44
2023-03-26T02:20:35.558Z,998.51
2023-03-26T02:21:07.843Z,998.51
2023-03-26T02:21:34.968Z,998.44
2023-03-26T02:21:55.574Z,998.44
2023-03-26T02:22:27.235Z,998.44
2023-03-26T02:22:59.970Z,998.44
2023-03-26T02:23:31.566Z,998.44
2023-03-26T02:24:04.372Z,998.34
2023-03-26T02:24:35.003Z,998.34
2023-03-26T02:25:07.314Z,998.34
2023-03-26T02:25:35.366Z,998.44
2023-03-26T02:25:55.757Z,998.44
2023-03-26T02:26:27.924Z,998.44
2023-03-26T02:26:59.252Z,998.14
2023-03-26T02:27:31.349Z,998.14
2023-03-26T02:28:03.129Z,998.34
2023-03-26T02:28:35.372Z,998.34
2023-03-26T02:29:07.185Z,998.34
2023-03-26T02:29:34.944Z,998.24
2023-03-26T02:29:55.901Z,998.24
2023-03-26T02:30:27.368Z,998.24
2023-03-26T02:30:59.950Z,998.03
2023-03-26T02:31:31.722Z,998.03
2023-03-26T02:32:03.905Z,998.03
2023-03-26T02:32:35.377Z,998.34
2023-03-26T02:33:07.965Z,998.34
2023-03-26T02:33:34.963Z,998.14
2023-03-26T02:33:55.383Z,998.14
2023-03-26T02:34:27.092Z,998.14
2023-03-26T02:35:06.171Z,998.34
2023-03-26T02:35:31.372Z,998.34
2023-03-26T02:36:03.190Z,998.24
2023-03-26T02:36:35.876Z,998.03
2023-03-26T02:37:07.165Z,998.03
2023-03-26T02:37:35.056Z,998.24
2023-03-26T02:37:55.399Z,998.24
2023-03-26T02:38:27.177Z,998.24
2023-03-26T02:38:59.960Z,998.03
2023-03-26T02:39:31.435Z,998.03
2023-03-26T02:40:04.359Z,998.14
2023-03-26T02:40:35.285Z,998.14
2023-03-26T02:41:07.165Z,998.14
2023-03-26T02:41:34.956Z,998.03
2023-03-26T02:41:55.397Z,998.03
2023-03-26T02:42:28.012Z,998.03
2023-03-26T02:42:59.137Z,998.03
2023-03-26T02:43:34.616Z,998.03
2023-03-26T02:44:03.342Z,998.34
2023-03-26T02:44:36.730Z,998.03
2023-03-26T02:45:07.496Z,998.03
2023-03-26T02:45:35.363Z,998.03
2023-03-26T02:45:56.469Z,998.03
2023-03-26T02:46:27.256Z,998.03
2023-03-26T02:46:59.314Z,997.93
2023-03-26T02:47:31.229Z,997.93
2023-03-26T02:48:03.277Z,998.03
2023-03-26T02:48:35.765Z,997.83
2023-03-26T02:49:07.200Z,997.83
2023-03-26T02:49:35.063Z,998.14
2023-03-26T02:49:55.386Z,998.14
2023-03-26T02:50:28.335Z,998.14
2023-03-26T02:50:59.401Z,997.93
2023-03-26T02:51:31.947Z,997.93
2023-03-26T02:52:03.098Z,998.03
2023-03-26T02:52:34.868Z,997.93
2023-03-26T02:53:07.194Z,997.93
2023-03-26T02:53:34.888Z,997.73
2023-03-26T02:53:56.459Z,997.73
2023-03-26T02:54:27.154Z,997.73
2023-03-26T02:54:59.264Z,997.83
2023-03-26T02:55:31.515Z,997.83
2023-03-26T02:56:03.128Z,997.83
2023-03-26T02:56:34.990Z,997.73
2023-03-26T02:57:07.278Z,997.73
2023-03-26T02:57:35.873Z,997.83
2023-03-26T02:57:55.351Z,997.83
2023-03-26T02:58:27.893Z,997.83
2023-03-26T02:58:59.236Z,997.63
2023-03-26T02:59:31.953Z,997.63
2023-03-26T03:00:03.820Z,997.83
2023-03-26T03:00:38.047Z,997.73
2023-03-26T03:01:07.224Z,997.73
2023-03-26T03:01:35.524Z,997.43
2023-03-26T03:01:55.637Z,997.43
2023-03-26T03:02:27.345Z,997.43
2023-03-26T03:02:59.384Z,997.73
2023-03-26T03:03:31.244Z,997.73
2023-03-26T03:04:04.333Z,997.63
2023-03-26T03:04:36.048Z,997.63
2023-03-26T03:05:07.335Z,997.63
2023-03-26T03:05:35.001Z,997.73
2023-03-26T03:05:55.845Z,997.73
2023-03-26T03:06:29.034Z,997.73
2023-03-26T03:06:59.270Z,997.73
2023-03-26T03:07:31.250Z,997.73
2023-03-26T03:08:03.093Z,997.63
2023-03-26T03:08:35.383Z,997.73
2023-03-26T03:09:07.292Z,997.73
2023-03-26T03:09:35.330Z,997.53
2023-03-26T03:09:55.901Z,997.53
2023-03-26T03:10:27.461Z,997.53
2023-03-26T03:10:59.218Z,997.43
2023-03-26T03:11:31.230Z,997.43
2023-03-26T03:12:03.095Z,997.53
2023-03-26T03:12:34.905Z,997.53
2023-03-26T03:13:07.115Z,997.53
2023-03-26T03:13:34.953Z,997.53
2023-03-26T03:13:56.045Z,997.53
2023-03-26T03:14:28.098Z,997.53
2023-03-26T03:15:00.043Z,997.43
2023-03-26T03:15:31.432Z,997.43
2023-03-26T03:16:03.113Z,997.53
2023-03-26T03:16:34.942Z,997.32
2023-03-26T03:17:07.214Z,997.32
2023-03-26T03:17:34.949Z,997.43
2023-03-26T03:17:55.962Z,997.43
2023-03-26T03:18:27.077Z,997.43
2023-03-26T03:19:00.132Z,997.22
2023-03-26T03:19:31.136Z,997.22
2023-03-26T03:20:03.318Z,997.43
2023-03-26T03:20:34.913Z,997.32
2023-03-26T03:21:07.517Z,997.32
2023-03-26T03:21:34.924Z,997.53
2023-03-26T03:21:55.421Z,997.53
2023-03-26T03:22:27.916Z,997.53
2023-03-26T03:22:59.226Z,997.32
2023-03-26T03:23:31.109Z,997.32
2023-03-26T03:24:03.134Z,997.43
2023-03-26T03:24:34.995Z,997.43
2023-03-26T03:25:07.330Z,997.43
2023-03-26T03:25:35.116Z,997.43
2023-03-26T03:25:56.596Z,997.43
2023-03-26T03:26:27.119Z,997.43
2023-03-26T03:27:00.711Z,997.32
2023-03-26T03:27:31.229Z,997.32
2023-03-26T03:28:04.052Z,997.32
2023-03-26T03:28:35.128Z,997.22
2023-03-26T03:29:08.082Z,997.22
2023-03-26T03:29:35.529Z,997.22
2023-03-26T03:29:55.503Z,997.22
2023-03-26T03:30:28.102Z,997.22
2023-03-26T03:30:59.209Z,997.22
2023-03-26T03:31:31.952Z,997.22
2023-03-26T03:32:03.993Z,997.22
2023-03-26T03:32:35.811Z,997.32
2023-03-26T03:33:07.478Z,997.32
2023-03-26T03:33:35.040Z,997.22
2023-03-26T03:33:55.578Z,997.22
2023-03-26T03:34:27.055Z,997.22
2023-03-26T03:34:59.949Z,997.12
2023-03-26T03:35:31.521Z,997.12
2023-03-26T03:36:03.141Z,997.02
2023-03-26T03:36:35.570Z,996.92
2023-03-26T03:37:07.187Z,996.92
2023-03-26T03:37:34.938Z,997.22
2023-03-26T03:37:55.763Z,997.22
2023-03-26T03:38:27.978Z,997.22
2023-03-26T03:38:59.280Z,997.22
2023-03-26T03:39:31.981Z,997.22
2023-03-26T03:40:03.296Z,996.92
2023-03-26T03:40:35.029Z,996.92
2023-03-26T03:41:07.083Z,996.92
2023-03-26T03:41:34.987Z,996.92
2023-03-26T03:41:56.203Z,996.92
2023-03-26T03:42:27.128Z,996.92
2023-03-26T03:42:59.824Z,997.02
2023-03-26T03:43:32.115Z,997.02
2023-03-26T03:44:04.076Z,997.02
2023-03-26T03:44:35.386Z,997.02
2023-03-26T03:45:07.315Z,997.02
2023-03-26T03:45:35.557Z,997.12
2023-03-26T03:45:55.751Z,997.12
2023-03-26T03:46:28.000Z,997.12
2023-03-26T03:46:59.175Z,996.82
2023-03-26T03:47:31.263Z,996.82
2023-03-26T03:48:04.252Z,997.12
2023-03-26T03:48:35.084Z,996.92
2023-03-26T03:49:07.069Z,996.92
2023-03-26T03:49:34.936Z,996.71
2023-03-26T03:49:56.716Z,996.71
2023-03-26T03:50:28.424Z,996.71
2023-03-26T03:50:59.098Z,996.92
2023-03-26T03:51:31.342Z,996.92
2023-03-26T03:52:03.107Z,996.92
2023-03-26T03:52:34.937Z,996.82
2023-03-26T03:53:07.108Z,996.82
2023-03-26T03:53:35.801Z,996.71
2023-03-26T03:53:55.714Z,996.71
2023-03-26T03:54:27.851Z,996.71
2023-03-26T03:54:59.127Z,996.82
2023-03-26T03:55:31.428Z,996.82
2023-03-26T03:56:03.093Z,996.92
2023-03-26T03:56:34.920Z,996.82
2023-03-26T03:57:07.169Z,996.82
2023-03-26T03:57:34.976Z,996.71
2023-03-26T03:57:56.848Z,996.71
2023-03-26T03:58:27.082Z,996.71
2023-03-26T03:58:59.100Z,996.61
2023-03-26T03:59:31.604Z,996.61
2023-03-26T04:00:06.337Z,996.82
2023-03-26T04:00:35.476Z,996.61
2023-03-26T04:01:07.179Z,996.61
2023-03-26T04:01:35.611Z,996.61
2023-03-26T04:01:55.373Z,996.61
2023-03-26T04:02:28.950Z,996.61
2023-03-26T04:02:59.352Z,996.51
2023-03-26T04:03:34.289Z,996.51
2023-03-26T04:04:03.203Z,996.71
2023-03-26T04:04:34.913Z,996.61
2023-03-26T04:05:08.177Z,996.61
2023-03-26T04:05:34.918Z,996.51
2023-03-26T04:05:55.840Z,996.51
2023-03-26T04:06:27.801Z,996.51
2023-03-26T04:06:59.169Z,996.71
2023-03-26T04:07:31.219Z,996.71
2023-03-26T04:08:03.182Z,996.31
2023-03-26T04:08:34.937Z,996.24
2023-03-26T04:09:07.124Z,996.24
2023-03-26T04:09:34.953Z,996.51
2023-03-26T04:09:56.878Z,996.51
2023-03-26T04:10:27.521Z,996.51
2023-03-26T04:10:59.064Z,996.41
2023-03-26T04:11:31.401Z,996.41
2023-03-26T04:12:03.051Z,996.51
2023-03-26T04:12:35.409Z,996.31
2023-03-26T04:13:07.092Z,996.31
2023-03-26T04:13:34.945Z,996.24
2023-03-26T04:13:55.424Z,996.24
2023-03-26T04:14:27.790Z,996.24
2023-03-26T04:14:59.144Z,996.61
2023-03-26T04:15:32.183Z,996.61
2023-03-26T04:16:03.111Z,996.24
2023-03-26T04:16:36.051Z,996.24
2023-03-26T04:17:07.388Z,996.24
2023-03-26T04:17:35.700Z,996.31
2023-03-26T04:17:56.951Z,996.31
2023-03-26T04:18:27.094Z,996.31
2023-03-26T04:18:59.161Z,996.24
2023-03-26T04:19:31.650Z,996.24
2023-03-26T04:20:03.549Z,996.41
2023-03-26T04:20:36.560Z,996.04
2023-03-26T04:21:07.055Z,996.04
2023-03-26T04:21:34.896Z,996.41
2023-03-26T04:21:56.926Z,996.41
2023-03-26T04:22:27.119Z,996.41
2023-03-26T04:23:00.251Z,996.14
2023-03-26T04:23:31.281Z,996.14
2023-03-26T04:24:03.098Z,996.31
2023-03-26T04:24:34.979Z,996.24
2023-03-26T04:25:07.271Z,996.24
2023-03-26T04:25:35.560Z,996.04
2023-03-26T04:25:56.321Z,996.04
2023-03-26T04:26:27.855Z,996.04
2023-03-26T04:26:59.153Z,996.24
2023-03-26T04:27:31.154Z,996.24
2023-03-26T04:28:03.106Z,996.14
2023-03-26T04:28:35.037Z,996.24
2023-03-26T04:29:07.147Z,996.24
2023-03-26T04:29:34.976Z,996.04
2023-03-26T04:29:55.919Z,996.04
2023-03-26T04:30:28.473Z,996.04
2023-03-26T04:30:59.137Z,996.24
2023-03-26T04:31:31.523Z,996.24
2023-03-26T04:32:03.125Z,996.31
2023-03-26T04:32:35.109Z,996.04
2023-03-26T04:33:07.195Z,996.04
2023-03-26T04:33:35.172Z,996.24
2023-03-26T04:33:55.612Z,996.24
2023-03-26T04:34:27.838Z,996.24
2023-03-26T04:34:59.228Z,996.04
2023-03-26T04:35:31.761Z,996.04
2023-03-26T04:36:03.479Z,996.14
2023-03-26T04:36:35.181Z,996.14
2023-03-26T04:37:07.149Z,996.14
2023-03-26T04:37:35.824Z,995.94
2023-03-26T04:37:56.221Z,995.94
2023-03-26T04:38:27.157Z,995.94
2023-03-26T04:38:59.489Z,996.04
2023-03-26T04:39:31.367Z,996.04
2023-03-26T04:40:03.154Z,996.04
2023-03-26T04:40:38.793Z,996.04
2023-03-26T04:41:07.176Z,996.04
2023-03-26T04:41:34.964Z,995.94
2023-03-26T04:41:55.527Z,995.94
2023-03-26T04:42:27.884Z,995.94
2023-03-26T04:42:59.258Z,995.83
2023-03-26T04:43:32.132Z,995.83
2023-03-26T04:44:04.262Z,995.83
2023-03-26T04:44:35.428Z,995.94
2023-03-26T04:45:07.467Z,995.94
2023-03-26T04:45:35.056Z,995.83
2023-03-26T04:45:57.129Z,995.83
2023-03-26T04:46:27.245Z,995.83
2023-03-26T04:47:00.141Z,995.83
2023-03-26T04:47:31.541Z,995.83
2023-03-26T04:48:03.477Z,995.73
2023-03-26T04:48:34.988Z,995.73
2023-03-26T04:49:07.099Z,995.73
2023-03-26T04:49:34.995Z,995.63
2023-03-26T04:49:55.495Z,995.63
2023-03-26T04:50:28.017Z,995.63
2023-03-26T04:50:59.149Z,995.83
2023-03-26T04:51:31.405Z,995.83
2023-03-26T04:52:03.923Z,995.83
2023-03-26T04:52:35.032Z,995.53
2023-03-26T04:53:07.153Z,995.53
2023-03-26T04:53:35.049Z,995.63
2023-03-26T04:53:55.895Z,995.63
2023-03-26T04:54:27.239Z,995.63
2023-03-26T04:54:59.194Z,995.53
2023-03-26T04:55:31.510Z,995.53
2023-03-26T04:56:03.209Z,995.43
2023-03-26T04:56:35.046Z,995.53
2023-03-26T04:57:07.300Z,995.53
2023-03-26T04:57:35.008Z,995.33
2023-03-26T04:57:55.555Z,995.33
2023-03-26T04:58:31.914Z,995.33
2023-03-26T04:58:59.197Z,995.43
2023-03-26T04:59:31.306Z,995.43
2023-03-26T05:00:04.424Z,995.53
2023-03-26T05:00:34.840Z,995.53
2023-03-26T05:01:10.298Z,995.53
2023-03-26T05:01:35.120Z,995.43
2023-03-26T05:01:55.409Z,995.43
2023-03-26T05:02:29.312Z,995.43
2023-03-26T05:02:59.284Z,995.33
2023-03-26T05:03:31.925Z,995.33
2023-03-26T05:04:03.238Z,995.43
2023-03-26T05:04:36.638Z,995.33
2023-03-26T05:05:07.389Z,995.33
2023-03-26T05:05:35.075Z,995.63
2023-03-26T05:06:11.230Z,995.63
2023-03-26T05:06:35.608Z,995.53
2023-03-26T05:07:02.278Z,995.53
2023-03-26T05:07:31.362Z,995.53
2023-03-26T05:08:04.004Z,995.33
2023-03-26T05:08:35.849Z,995.43
2023-03-26T05:09:08.470Z,995.43
2023-03-26T05:09:35.009Z,995.43
2023-03-26T05:09:55.811Z,995.43
2023-03-26T05:10:28.072Z,995.43
2023-03-26T05:10:59.327Z,995.33
2023-03-26T05:11:31.275Z,995.33
2023-03-26T05:12:03.231Z,995.12
2023-03-26T05:12:35.090Z,995.43
2023-03-26T05:13:07.213Z,995.43
2023-03-26T05:13:36.030Z,995.33
2023-03-26T05:13:55.526Z,995.33
2023-03-26T05:14:28.093Z,995.33
2023-03-26T05:14:59.149Z,995.22
2023-03-26T05:15:31.663Z,995.22
2023-03-26T05:16:03.139Z,995.33
2023-03-26T05:16:34.978Z,995.33
2023-03-26T05:17:07.255Z,995.33
2023-03-26T05:17:35.159Z,995.33
2023-03-26T05:17:55.638Z,995.33
2023-03-26T05:18:27.918Z,995.33
2023-03-26T05:18:59.277Z,995.33
2023-03-26T05:19:33.096Z,995.33
2023-03-26T05:20:03.863Z,995.22
2023-03-26T05:20:36.617Z,995.33
2023-03-26T05:21:07.522Z,995.33
2023-03-26T05:21:34.940Z,995.02
2023-03-26T05:21:55.573Z,995.02
2023-03-26T05:22:27.056Z,995.02
2023-03-26T05:22:59.786Z,995.02
2023-03-26T05:23:31.390Z,995.02
2023-03-26T05:24:04.785Z,995.02
2023-03-26T05:24:35.006Z,995.22
2023-03-26T05:25:07.266Z,995.22
2023-03-26T05:25:35.094Z,995.12
2023-03-26T05:25:55.721Z,995.12
2023-03-26T05:26:27.902Z,995.12
2023-03-26T05:26:59.310Z,995.02
2023-03-26T05:27:32.932Z,995.02
2023-03-26T05:28:03.380Z,995.43
2023-03-26T05:28:36.504Z,995.12
2023-03-26T05:29:07.202Z,995.12
2023-03-26T05:29:35.380Z,994.92
2023-03-26T05:29:55.370Z,994.92
2023-03-26T05:30:27.414Z,994.92
2023-03-26T05:30:59.931Z,994.92
2023-03-26T05:31:31.194Z,994.92
2023-03-26T05:32:03.305Z,995.22
2023-03-26T05:32:35.775Z,995.12
2023-03-26T05:33:07.286Z,995.12
2023-03-26T05:33:37.584Z,994.82
2023-03-26T05:33:55.517Z,994.82
2023-03-26T05:34:28.163Z,994.82
2023-03-26T05:34:59.528Z,994.82
2023-03-26T05:35:31.476Z,994.82
2023-03-26T05:36:03.975Z,994.92
2023-03-26T05:36:35.025Z,994.82
2023-03-26T05:37:07.116Z,994.82
2023-03-26T05:37:35.511Z,995.02
2023-03-26T05:37:56.930Z,995.02
2023-03-26T05:38:27.275Z,995.02
2023-03-26T05:38:59.195Z,994.82
2023-03-26T05:39:31.313Z,994.82
2023-03-26T05:40:04.399Z,994.82
2023-03-26T05:40:35.068Z,994.92
2023-03-26T05:41:07.414Z,994.92
2023-03-26T05:41:35.411Z,995.12
2023-03-26T05:41:55.544Z,995.12
2023-03-26T05:42:28.033Z,995.12
2023-03-26T05:43:00.245Z,994.82
2023-03-26T05:43:31.400Z,994.82
2023-03-26T05:44:04.441Z,994.92
2023-03-26T05:44:35.046Z,994.82
2023-03-26T05:45:07.625Z,994.82
2023-03-26T05:45:35.618Z,995.02
2023-03-26T05:45:58.769Z,995.02
2023-03-26T05:46:27.372Z,995.02
2023-03-26T05:47:00.011Z,994.72
2023-03-26T05:47:31.343Z,994.72
2023-03-26T05:48:03.651Z,994.82
2023-03-26T05:48:35.784Z,994.82
2023-03-26T05:49:07.246Z,994.82
2023-03-26T05:49:35.790Z,994.92
2023-03-26T05:49:55.694Z,994.92
2023-03-26T05:50:27.554Z,994.92
2023-03-26T05:51:01.066Z,994.82
2023-03-26T05:51:31.402Z,994.82
2023-03-26T05:52:04.066Z,994.72
2023-03-26T05:52:36.304Z,994.61
2023-03-26T05:53:08.057Z,994.61
2023-03-26T05:53:35.117Z,994.61
2023-03-26T05:53:55.486Z,994.61
2023-03-26T05:54:27.392Z,994.61
2023-03-26T05:54:59.201Z,994.82
2023-03-26T05:55:36.064Z,994.61
2023-03-26T05:56:03.391Z,994.61
2023-03-26T05:56:35.110Z,994.72
2023-03-26T05:57:07.269Z,994.72
2023-03-26T05:57:35.210Z,994.61
2023-03-26T05:57:55.369Z,994.61
2023-03-26T05:58:28.037Z,994.61
2023-03-26T05:59:00.375Z,994.72
2023-03-26T05:59:31.260Z,994.72
2023-03-26T06:00:05.069Z,994.51
2023-03-26T06:00:35.595Z,994.51
2023-03-26T06:01:07.305Z,994.51
2023-03-26T06:01:35.908Z,994.72
2023-03-26T06:01:56.943Z,994.72
2023-03-26T06:02:27.239Z,994.72
2023-03-26T06:03:00.072Z,994.61
2023-03-26T06:03:32.503Z,994.61
2023-03-26T06:04:03.540Z,994.41
2023-03-26T06:04:35.264Z,994.61
2023-03-26T06:05:07.450Z,994.61
2023-03-26T06:05:35.141Z,994.61
2023-03-26T06:05:55.536Z,994.61
2023-03-26T06:06:28.172Z,994.61
2023-03-26T06:06:59.393Z,994.51
2023-03-26T06:07:33.091Z,994.51
2023-03-26T06:08:03.371Z,994.41
2023-03-26T06:08:35.755Z,994.51
2023-03-26T06:09:08.289Z,994.51
2023-03-26T06:09:35.341Z,994.51
2023-03-26T06:09:56.213Z,994.51
2023-03-26T06:10:27.485Z,994.51
2023-03-26T06:10:59.294Z,994.51
2023-03-26T06:11:31.640Z,994.51
2023-03-26T06:12:03.354Z,994.61
2023-03-26T06:12:35.180Z,994.51
2023-03-26T06:13:07.422Z,994.51
2023-03-26T06:13:35.281Z,994.51